Terminal Aerodrome Forecast
Issued by NWS Goodland, KS

Home | Current Version | Previous Version | Text Only | Print | Product List | Glossary On
Versions: 1 2 3 4 5 6 7 8 9 10 11 12 13 14 15 16 17 18 19 20 21 22 23
000
FTUS43 KGLD 271440 AAC
TAFGLD
TAF AMD
KGLD 271440Z 2715/2812 18004KT 2SM BR OVC005
      TEMPO 2715/2717 1/4SM FG OVC003
     FM271700 19004KT P6SM SCT005 BKN015
     FM271800 10005KT P6SM SCT007
     FM272300 15009KT P6SM SCT080 PROB30 2801/2804 4SM -TSRA
      BKN060CB
     FM280500 18008KT P6SM SCT090=

USA.gov is the U.S. government's official web portal to all federal, state and local government web resources and services.